Time;durP1;ratioP1;P1;durP2;ratioP2;P2;SDS_P1;SDS_P2;PMS_P1;PMS_P2;Temp;Humidity;BMP_temperature;BMP_pressure;BME280_temperature;BME280_humidity;BME280_pressure;Samples;Min_cycle;Max_cycle;Signal;HPM_P1;HPM_P2
2023/07/07 00:02:16;;;;;;;10.40;3.40;;;;;;;20.46;94.92;96470.25;5119464;27;20416;-82
2023/07/07 00:04:41;;;;;;;6.33;3.13;;;;;;;20.48;93.43;96472.69;5085253;27;20023;-83
2023/07/07 00:07:07;;;;;;;6.87;3.07;;;;;;;20.30;94.70;96468.06;5078961;28;20027;-83
2023/07/07 00:09:33;;;;;;;6.33;2.87;;;;;;;20.33;94.46;96466.84;5085499;27;20088;-82
2023/07/07 00:11:59;;;;;;;5.77;3.50;;;;;;;20.40;92.37;96473.78;5105356;28;20019;-82
2023/07/07 00:14:25;;;;;;;6.70;3.00;;;;;;;20.45;91.42;96479.28;5102256;28;20015;-82
2023/07/07 00:16:51;;;;;;;7.27;3.13;;;;;;;20.14;95.03;96481.94;5084954;27;20023;-83
2023/07/07 00:19:17;;;;;;;7.43;3.20;;;;;;;20.19;96.16;96469.59;5076387;27;20430;-83
2023/07/07 00:21:42;;;;;;;4.90;2.90;;;;;;;20.17;95.79;96474.31;5084398;27;20380;-82
2023/07/07 00:24:08;;;;;;;5.53;3.13;;;;;;;20.09;96.76;96468.41;5096835;27;20023;-83
2023/07/07 00:26:34;;;;;;;5.93;2.97;;;;;;;20.15;94.80;96475.53;5110373;27;20032;-83
2023/07/07 00:29:01;;;;;;;6.70;3.20;;;;;;;20.11;95.64;96475.16;5102588;28;20022;-83
2023/07/07 00:31:28;;;;;;;5.87;3.03;;;;;;;20.27;93.17;96473.03;5086674;27;20012;-83
2023/07/07 00:33:54;;;;;;;6.70;3.00;;;;;;;20.19;91.83;96468.78;5100520;28;20759;-83
2023/07/07 00:36:19;;;;;;;6.47;2.90;;;;;;;19.85;95.77;96477.94;5097476;27;20094;-83
2023/07/07 00:38:46;;;;;;;6.50;3.13;;;;;;;19.75;96.76;96479.22;5077845;28;20486;-83
2023/07/07 00:41:12;;;;;;;5.90;3.07;;;;;;;19.59;100.00;96474.31;5100923;28;20026;-83
2023/07/07 00:43:37;;;;;;;7.23;3.53;;;;;;;19.59;100.00;96478.84;5097986;28;20039;-83
2023/07/07 00:46:04;;;;;;;8.13;3.77;;;;;;;19.57;100.00;96480.88;5081653;28;20031;-82
2023/07/07 00:48:43;;;;;;;6.37;3.50;;;;;;;19.56;100.00;96480.06;5098691;27;20020;-82
2023/07/07 00:51:19;;;;;;;8.17;3.70;;;;;;;19.56;100.00;96482.75;5096372;28;20022;-83
2023/07/07 00:53:49;;;;;;;8.40;3.37;;;;;;;19.44;100.00;96481.75;5082411;27;20019;-83
2023/07/07 00:56:30;;;;;;;5.67;3.00;;;;;;;19.37;100.00;96487.09;5111059;27;20428;-82
2023/07/07 00:59:02;;;;;;;7.57;3.67;;;;;;;19.22;100.00;96491.84;5097260;27;20488;-83
2023/07/07 01:01:28;;;;;;;6.33;3.30;;;;;;;19.13;100.00;96480.56;5093512;28;20027;-82
2023/07/07 01:04:01;;;;;;;7.33;3.33;;;;;;;19.11;100.00;96479.13;5072721;28;20051;-83
2023/07/07 01:06:34;;;;;;;7.40;3.33;;;;;;;19.11;100.00;96476.47;5081180;27;20766;-84
2023/07/07 01:09:06;;;;;;;6.68;3.50;;;;;;;19.10;100.00;96472.97;5089286;28;20438;-84
2023/07/07 01:11:54;;;;;;;5.93;3.17;;;;;;;18.92;100.00;96483.47;5082139;28;20030;-83
2023/07/07 01:14:25;;;;;;;9.63;3.50;;;;;;;18.91;100.00;96477.28;5078816;27;20063;-84
2023/07/07 01:17:21;;;;;;;7.00;3.20;;;;;;;18.94;100.00;96479.53;5090259;27;20018;-83
2023/07/07 01:20:43;;;;;;;13.33;8.90;;;;;;;18.96;100.00;96485.50;5074671;27;20030;-83
2023/07/07 01:23:21;;;;;;;11.60;8.40;;;;;;;19.18;100.00;96490.59;4997120;28;21290;-83
2023/07/07 01:25:55;;;;;;;6.37;3.27;;;;;;;19.25;100.00;96492.25;5006167;28;20021;-84
2023/07/07 01:28:53;;;;;;;6.50;2.87;;;;;;;19.22;100.00;96491.84;5055634;28;20043;-83
2023/07/07 01:31:40;;;;;;;6.83;3.10;;;;;;;19.03;100.00;96485.50;5074924;28;20016;-84
2023/07/07 01:34:10;;;;;;;5.87;3.30;;;;;;;19.24;100.00;96489.78;5085592;28;20394;-84
2023/07/07 01:36:36;;;;;;;6.13;3.60;;;;;;;19.04;100.00;96490.59;5085452;27;20107;-84
2023/07/07 01:39:03;;;;;;;5.97;3.20;;;;;;;19.14;100.00;96492.03;5077593;28;20062;-84
2023/07/07 01:41:52;;;;;;;7.23;3.10;;;;;;;19.17;100.00;96486.31;5074649;28;20039;-84
2023/07/07 01:44:39;;;;;;;7.03;3.30;;;;;;;19.18;100.00;96488.78;5076747;28;20024;-84
2023/07/07 01:47:46;;;;;;;6.07;3.00;;;;;;;19.08;100.00;96491.84;5080720;28;20033;-83
2023/07/07 01:50:18;;;;;;;7.03;3.07;;;;;;;18.90;100.00;96494.31;5060936;28;20674;-84
2023/07/07 01:52:51;;;;;;;5.33;2.63;;;;;;;18.65;100.00;96491.41;5079901;28;20030;-84
2023/07/07 01:55:21;;;;;;;6.85;3.67;;;;;;;18.58;100.00;96493.25;5097686;28;20030;-84
2023/07/07 01:57:59;;;;;;;8.77;3.00;;;;;;;18.10;100.00;96486.16;5079792;28;20081;-84
2023/07/07 02:00:26;;;;;;;7.93;3.70;;;;;;;17.96;100.00;96497.78;5082825;28;20039;-84
2023/07/07 02:02:53;;;;;;;5.50;3.03;;;;;;;18.07;100.00;96491.88;5100415;28;20033;-84
2023/07/07 02:05:19;;;;;;;7.07;4.10;;;;;;;18.12;100.00;96499.28;5093519;28;20114;-83
2023/07/07 02:07:45;;;;;;;6.93;3.30;;;;;;;18.46;100.00;96494.88;5085732;28;20452;-84
2023/07/07 02:10:11;;;;;;;7.80;3.70;;;;;;;18.33;100.00;96491.13;5086747;28;20030;-83
2023/07/07 02:12:37;;;;;;;6.53;3.60;;;;;;;18.16;100.00;96483.72;5090098;28;20565;-83
2023/07/07 02:15:03;;;;;;;6.50;3.57;;;;;;;18.20;100.00;96484.97;5083164;28;20044;-84
2023/07/07 02:17:29;;;;;;;5.53;3.30;;;;;;;18.12;100.00;96489.47;5082785;28;20024;-84
2023/07/07 02:19:56;;;;;;;6.10;3.13;;;;;;;18.19;100.00;96483.34;5074814;28;20028;-83
2023/07/07 02:22:21;;;;;;;7.87;3.47;;;;;;;18.12;100.00;96478.00;5076261;28;20024;-84
2023/07/07 02:24:57;;;;;;;7.70;3.60;;;;;;;18.26;100.00;96484.16;5079652;28;20051;-84
2023/07/07 02:27:22;;;;;;;8.77;3.67;;;;;;;18.45;100.00;96483.41;5087115;28;20111;-84
2023/07/07 02:29:49;;;;;;;7.23;3.30;;;;;;;18.42;100.00;96482.97;5081973;28;20081;-84
2023/07/07 02:32:22;;;;;;;5.97;3.03;;;;;;;18.35;100.00;96480.31;5108252;28;20031;-84
2023/07/07 02:34:48;;;;;;;7.57;3.22;;;;;;;18.10;100.00;96483.50;5073894;28;20434;-84
2023/07/07 02:37:18;;;;;;;8.23;2.90;;;;;;;18.37;100.00;96481.72;5098035;28;20066;-84
2023/07/07 02:39:44;;;;;;;6.43;3.00;;;;;;;18.32;100.00;96478.03;5079203;28;20023;-84
2023/07/07 02:42:11;;;;;;;8.73;3.27;;;;;;;18.20;100.00;96482.31;5078424;28;20045;-84
2023/07/07 02:44:38;;;;;;;7.97;3.30;;;;;;;18.23;100.00;96477.41;5080614;28;20031;-84
2023/07/07 02:47:04;;;;;;;6.43;3.20;;;;;;;18.40;100.00;96474.38;5082084;28;20024;-83
2023/07/07 02:49:36;;;;;;;6.30;3.30;;;;;;;18.23;100.00;96480.06;5088195;28;20076;-84
2023/07/07 02:52:03;;;;;;;7.37;3.40;;;;;;;18.19;100.00;96472.69;5104668;27;20050;-84
2023/07/07 02:54:29;;;;;;;8.57;3.67;;;;;;;18.12;100.00;96476.16;5088724;27;20073;-84
2023/07/07 02:56:55;;;;;;;7.43;2.97;;;;;;;18.18;100.00;96484.38;5078862;28;20496;-84
2023/07/07 02:59:20;;;;;;;6.40;3.30;;;;;;;18.18;100.00;96482.53;5089780;27;20031;-84
2023/07/07 03:01:51;;;;;;;6.57;3.77;;;;;;;18.18;100.00;96476.38;5093541;28;20055;-84
2023/07/07 03:04:17;;;;;;;6.20;2.67;;;;;;;18.35;100.00;96481.13;5078939;28;20050;-84
2023/07/07 03:06:42;;;;;;;6.73;3.00;;;;;;;18.19;100.00;96486.00;5090775;27;20045;-84
2023/07/07 03:09:09;;;;;;;6.93;3.30;;;;;;;18.27;100.00;96483.13;5104019;27;20031;-84
2023/07/07 03:11:37;;;;;;;5.03;2.93;;;;;;;18.37;100.00;96475.59;5087543;27;20128;-84
2023/07/07 03:14:05;;;;;;;7.67;3.67;;;;;;;18.25;100.00;96482.53;5078337;28;20481;-84
2023/07/07 03:16:51;;;;;;;6.93;4.07;;;;;;;17.84;100.00;96483.41;5097736;27;20031;-84
2023/07/07 03:19:20;;;;;;;7.87;4.57;;;;;;;17.66;100.00;96484.75;5083633;27;20035;-84
2023/07/07 03:21:55;;;;;;;8.20;4.20;;;;;;;17.78;100.00;96481.56;5080700;28;20030;-84
2023/07/07 03:24:38;;;;;;;7.47;4.00;;;;;;;17.70;100.00;96487.81;5094943;28;20038;-84
2023/07/07 03:27:12;;;;;;;6.83;4.23;;;;;;;17.71;100.00;96492.16;5112607;27;20032;-84
2023/07/07 03:29:41;;;;;;;8.13;4.37;;;;;;;17.57;100.00;96493.91;5099086;28;20030;-84
2023/07/07 03:32:26;;;;;;;7.03;3.87;;;;;;;17.42;100.00;96503.84;5093494;27;20019;-84
2023/07/07 03:34:59;;;;;;;6.97;3.70;;;;;;;17.77;100.00;96509.16;5090811;28;20143;-83
2023/07/07 03:37:26;;;;;;;6.40;3.20;;;;;;;17.82;100.00;96502.25;5104806;28;20054;-84
2023/07/07 03:39:52;;;;;;;7.57;3.87;;;;;;;17.75;100.00;96503.22;5081018;28;20024;-84
2023/07/07 03:42:18;;;;;;;7.77;3.90;;;;;;;17.76;100.00;96499.53;5078913;27;20058;-84
2023/07/07 03:44:44;;;;;;;11.23;3.63;;;;;;;17.83;100.00;96505.72;5103176;28;20020;-84
2023/07/07 03:47:10;;;;;;;7.80;3.57;;;;;;;17.68;100.00;96503.19;5087906;27;20019;-84
2023/07/07 03:49:36;;;;;;;9.13;3.60;;;;;;;17.65;100.00;96504.38;5083272;28;20027;-84
2023/07/07 03:52:02;;;;;;;7.07;3.50;;;;;;;17.70;100.00;96510.94;5091049;28;20524;-83
2023/07/07 03:54:29;;;;;;;8.30;3.50;;;;;;;17.82;100.00;96507.56;5082831;27;20085;-83
2023/07/07 03:56:54;;;;;;;6.83;3.77;;;;;;;18.00;100.00;96512.34;5100576;28;20046;-83
2023/07/07 03:59:20;;;;;;;7.90;4.00;;;;;;;17.99;100.00;96509.88;5107473;27;20833;-83
2023/07/07 04:02:03;;;;;;;9.83;3.63;;;;;;;18.02;100.00;96507.66;5073127;28;20330;-83
2023/07/07 04:04:29;;;;;;;7.03;3.63;;;;;;;17.96;100.00;96512.94;5096717;27;20035;-83
2023/07/07 04:06:56;;;;;;;7.93;3.80;;;;;;;18.10;100.00;96515.44;5109704;27;20034;-84
2023/07/07 04:09:22;;;;;;;9.00;3.47;;;;;;;18.04;100.00;96516.25;5103144;27;20751;-82
2023/07/07 04:11:48;;;;;;;6.50;3.20;;;;;;;17.93;100.00;96519.47;5083780;27;20101;-83
2023/07/07 04:14:14;;;;;;;6.37;3.47;;;;;;;18.27;100.00;96518.56;5095205;27;20544;-82
2023/07/07 04:16:39;;;;;;;10.13;3.83;;;;;;;18.26;100.00;96521.44;5106021;27;20742;-84
2023/07/07 04:19:05;;;;;;;10.40;5.20;;;;;;;18.42;100.00;96520.25;5104221;28;20696;-83
2023/07/07 04:21:31;;;;;;;9.90;4.60;;;;;;;18.48;100.00;96522.94;5093702;27;20486;-83
2023/07/07 04:23:59;;;;;;;11.03;4.07;;;;;;;18.17;100.00;96530.63;5101999;28;20027;-83
2023/07/07 04:26:27;;;;;;;8.37;3.90;;;;;;;18.27;100.00;96533.72;5097841;28;20387;-82
2023/07/07 04:28:54;;;;;;;9.57;3.50;;;;;;;18.30;100.00;96538.66;5113011;27;20485;-83
2023/07/07 04:31:23;;;;;;;8.93;3.67;;;;;;;18.51;100.00;96535.84;5077468;28;20036;-83
2023/07/07 04:33:49;;;;;;;7.60;3.70;;;;;;;18.47;100.00;96539.09;5098516;27;20041;-83
2023/07/07 04:36:15;;;;;;;5.77;3.20;;;;;;;18.63;100.00;96538.72;5083380;27;20083;-83
2023/07/07 04:38:41;;;;;;;10.10;3.67;;;;;;;18.67;100.00;96533.81;5097836;27;20540;-84
2023/07/07 04:41:10;;;;;;;6.67;3.47;;;;;;;18.98;100.00;96542.09;5098939;28;20019;-83
2023/07/07 04:43:37;;;;;;;7.33;3.70;;;;;;;18.90;100.00;96539.63;5093446;27;20117;-83
2023/07/07 04:46:04;;;;;;;7.37;3.90;;;;;;;19.01;100.00;96538.19;5105898;27;20019;-83
2023/07/07 04:48:31;;;;;;;5.80;3.30;;;;;;;18.88;100.00;96546.16;5112153;27;20034;-83
2023/07/07 04:50:59;;;;;;;7.43;3.50;;;;;;;19.02;100.00;96535.31;5076365;28;20796;-83
2023/07/07 04:53:28;;;;;;;7.57;3.63;;;;;;;19.04;100.00;96537.78;5090200;27;20031;-82
2023/07/07 04:55:57;;;;;;;8.03;3.77;;;;;;;19.26;100.00;96544.53;5077894;28;20052;-82
2023/07/07 04:58:26;;;;;;;8.60;3.33;;;;;;;19.16;100.00;96544.13;5090698;27;20031;-82
2023/07/07 05:01:03;;;;;;;8.87;4.17;;;;;;;19.57;100.00;96545.72;5081307;28;20394;-83
2023/07/07 05:03:29;;;;;;;6.67;3.53;;;;;;;19.63;100.00;96546.75;5075255;28;20027;-81
2023/07/07 05:05:56;;;;;;;7.00;3.40;;;;;;;19.41;100.00;96544.31;5097736;27;20361;-82
2023/07/07 05:08:21;;;;;;;7.93;3.80;;;;;;;19.54;100.00;96551.47;5094653;28;20024;-82
2023/07/07 05:10:48;;;;;;;7.50;3.70;;;;;;;19.63;100.00;96552.09;5094354;28;20023;-82
2023/07/07 05:13:13;;;;;;;8.77;3.83;;;;;;;19.72;100.00;96548.22;5110570;28;20423;-82
2023/07/07 05:15:39;;;;;;;8.93;3.47;;;;;;;20.13;100.00;96552.38;5093078;28;20030;-83
2023/07/07 05:18:04;;;;;;;9.17;4.40;;;;;;;20.37;100.00;96554.31;5097552;28;20023;-80
2023/07/07 05:20:30;;;;;;;7.70;3.90;;;;;;;20.45;100.00;96556.75;5092205;28;20035;-81
2023/07/07 05:22:55;;;;;;;6.07;3.70;;;;;;;20.35;100.00;96556.38;5109538;28;20096;-81
2023/07/07 05:25:22;;;;;;;6.40;3.60;;;;;;;20.36;100.00;96552.69;5076242;28;20104;-81
2023/07/07 05:27:47;;;;;;;7.47;4.13;;;;;;;20.77;100.00;96554.13;5084140;28;20019;-80
2023/07/07 05:30:13;;;;;;;11.53;4.33;;;;;;;21.11;100.00;96563.56;5081660;28;20020;-82
2023/07/07 05:32:39;;;;;;;5.93;3.30;;;;;;;21.44;100.00;96545.63;5099499;27;20030;-82
2023/07/07 05:35:05;;;;;;;6.50;3.87;;;;;;;21.92;99.89;96551.09;5125163;27;20031;-82
2023/07/07 05:37:30;;;;;;;9.20;4.47;;;;;;;21.95;98.69;96552.50;5108647;27;20422;-83
2023/07/07 05:39:56;;;;;;;9.10;4.00;;;;;;;22.41;97.80;96543.13;5076982;28;20023;-82
2023/07/07 05:42:22;;;;;;;9.73;4.72;;;;;;;22.14;98.67;96540.75;5080493;28;20032;-83
2023/07/07 05:44:47;;;;;;;6.37;3.70;;;;;;;22.76;95.27;96549.44;5100606;28;20381;-82
2023/07/07 05:47:22;;;;;;;8.40;4.28;;;;;;;22.89;93.39;96550.28;5078296;28;20035;-82
2023/07/07 05:49:53;;;;;;;7.30;4.03;;;;;;;23.44;90.60;96544.66;5097394;28;20028;-82
2023/07/07 05:52:18;;;;;;;7.65;4.55;;;;;;;23.35;91.23;96546.09;5094182;28;20024;-82
2023/07/07 05:54:44;;;;;;;9.05;4.75;;;;;;;23.97;86.28;96538.38;5082434;28;20032;-83
2023/07/07 05:57:10;;;;;;;7.95;4.35;;;;;;;24.41;85.36;96539.59;5074427;28;20020;-83
2023/07/07 05:59:35;;;;;;;7.95;4.10;;;;;;;24.36;86.32;96546.69;5103621;28;20019;-83
2023/07/07 06:02:01;;;;;;;7.82;4.70;;;;;;;24.79;84.09;96540.00;5113363;28;20910;-83
2023/07/07 06:04:26;;;;;;;8.40;4.50;;;;;;;25.49;80.81;96534.19;5091904;28;20046;-83
2023/07/07 06:06:52;;;;;;;8.93;4.32;;;;;;;25.74;77.69;96541.00;5076023;28;20024;-83
2023/07/07 06:09:18;;;;;;;8.02;3.90;;;;;;;25.97;77.20;96534.59;5082559;28;20068;-83
2023/07/07 06:11:43;;;;;;;7.72;4.03;;;;;;;26.37;70.15;96544.25;5092350;28;20019;-83
2023/07/07 06:14:14;;;;;;;7.82;4.32;;;;;;;26.46;71.05;96542.72;5069549;28;20027;-84
2023/07/07 06:16:39;;;;;;;6.97;4.03;;;;;;;26.23;71.46;96535.75;5094062;28;20023;-84
2023/07/07 06:19:05;;;;;;;8.50;4.47;;;;;;;26.29;71.61;96543.66;5116363;28;20457;-83
2023/07/07 06:21:30;;;;;;;8.18;4.55;;;;;;;26.69;70.36;96541.66;5095115;28;20080;-83
2023/07/07 06:24:23;;;;;;;9.38;4.25;;;;;;;26.99;71.69;96541.97;5084069;27;20023;-83
2023/07/07 06:26:49;;;;;;;;;;;;;;;27.38;67.55;96541.78;5102172;27;20054;-83
2023/07/07 06:29:14;;;;;;;8.85;4.47;;;;;;;26.83;68.94;96552.88;5101255;27;19951;-82
2023/07/07 06:31:40;;;;;;;7.78;4.57;;;;;;;27.31;68.54;96548.47;5121240;27;20023;-82
2023/07/07 06:34:06;;;;;;;7.65;4.80;;;;;;;27.37;66.37;96548.25;5118018;27;20023;-83
2023/07/07 06:36:32;;;;;;;7.43;4.20;;;;;;;26.95;67.44;96559.75;5080392;28;20031;-83
2023/07/07 06:38:57;;;;;;;9.13;5.00;;;;;;;27.23;66.63;96553.28;5078815;28;20028;-83
2023/07/07 06:41:24;;;;;;;7.72;4.05;;;;;;;26.73;70.63;96559.81;5098558;27;20042;-83
2023/07/07 06:43:50;;;;;;;7.75;4.57;;;;;;;27.54;65.86;96560.81;5089546;27;20025;-83
2023/07/07 06:46:19;;;;;;;7.65;4.65;;;;;;;27.22;66.23;96561.63;5105241;28;20533;-82
2023/07/07 06:48:44;;;;;;;7.57;4.22;;;;;;;27.73;64.23;96552.03;5099053;28;20027;-83
2023/07/07 06:51:10;;;;;;;8.23;4.53;;;;;;;27.48;66.17;96558.06;5074542;28;20054;-83
2023/07/07 06:53:35;;;;;;;8.73;4.72;;;;;;;28.25;60.36;96555.03;5088391;27;20038;-82
2023/07/07 06:56:01;;;;;;;7.50;5.15;;;;;;;28.32;60.03;96559.09;5090255;27;20020;-83
2023/07/07 06:58:26;;;;;;;7.35;4.50;;;;;;;27.52;64.93;96571.06;5084178;27;20016;-83
2023/07/07 07:00:52;;;;;;;8.65;4.45;;;;;;;28.03;62.28;96564.09;5101901;28;20023;-83
2023/07/07 07:03:17;;;;;;;7.72;4.57;;;;;;;28.71;57.54;96572.28;5075423;28;20027;-82
2023/07/07 07:05:43;;;;;;;11.57;4.80;;;;;;;29.25;54.55;96566.44;5106813;27;20023;-82
2023/07/07 07:08:10;;;;;;;7.82;5.10;;;;;;;29.82;51.99;96565.34;5096024;27;20046;-83
2023/07/07 07:10:36;;;;;;;7.93;5.07;;;;;;;29.52;51.12;96562.63;5089902;27;20031;-83
2023/07/07 07:13:01;;;;;;;7.90;4.63;;;;;;;29.47;50.79;96568.84;5100026;28;20031;-83
2023/07/07 07:15:27;;;;;;;6.40;4.28;;;;;;;30.20;49.28;96563.09;5087075;27;20015;-85
2023/07/07 07:17:52;;;;;;;7.15;4.28;;;;;;;30.41;48.17;96565.72;5101453;28;20094;-84
2023/07/07 07:20:18;;;;;;;6.47;4.30;;;;;;;30.63;46.68;96555.31;5094554;28;20389;-83
2023/07/07 07:22:44;;;;;;;7.63;4.38;;;;;;;29.99;48.11;96570.44;5093846;28;20439;-83
2023/07/07 07:25:11;;;;;;;7.53;4.43;;;;;;;30.95;45.75;96564.91;5089633;27;20484;-83
2023/07/07 07:27:37;;;;;;;8.13;4.55;;;;;;;31.02;44.29;96568.16;5086316;28;20059;-83
2023/07/07 07:30:05;;;;;;;7.18;4.50;;;;;;;31.10;43.04;96567.53;5076681;28;20027;-83
2023/07/07 07:32:30;;;;;;;8.45;5.15;;;;;;;30.74;44.39;96565.00;5085057;27;20118;-83
2023/07/07 07:34:56;;;;;;;9.20;5.30;;;;;;;30.98;43.37;96556.19;5104104;27;20080;-83
2023/07/07 07:37:34;;;;;;;8.57;5.57;;;;;;;30.81;43.21;96572.88;5099319;28;20019;-83
2023/07/07 07:39:59;;;;;;;8.32;4.80;;;;;;;30.76;43.10;96562.88;5101840;28;20070;-83
2023/07/07 07:42:25;;;;;;;8.43;4.72;;;;;;;30.47;43.28;96554.56;5079292;27;20601;-83
2023/07/07 07:44:50;;;;;;;8.65;4.68;;;;;;;30.94;42.57;96557.88;5088305;28;20487;-83
2023/07/07 07:47:16;;;;;;;8.05;4.32;;;;;;;30.24;42.47;96561.44;5077217;28;20023;-83
2023/07/07 07:49:42;;;;;;;6.88;4.47;;;;;;;30.36;42.63;96565.75;5096527;27;20022;-83
2023/07/07 07:52:07;;;;;;;7.07;5.07;;;;;;;31.70;39.41;96560.00;5093283;28;20023;-83
2023/07/07 07:54:34;;;;;;;8.52;5.30;;;;;;;30.88;40.41;96558.97;5085685;28;20027;-84
2023/07/07 07:57:00;;;;;;;9.23;5.68;;;;;;;31.07;40.02;96561.84;5085100;28;20072;-83
2023/07/07 07:59:25;;;;;;;8.60;5.15;;;;;;;32.11;37.67;96562.31;5128919;27;20019;-83
2023/07/07 08:01:51;;;;;;;7.93;5.03;;;;;;;32.60;36.19;96569.38;5076963;27;20023;-83
2023/07/07 08:04:16;;;;;;;7.47;4.78;;;;;;;33.03;36.13;96574.81;5090599;28;20086;-83
2023/07/07 08:06:42;;;;;;;8.10;4.60;;;;;;;32.55;37.07;96572.16;5091321;27;20027;-83
2023/07/07 08:09:12;;;;;;;6.45;4.53;;;;;;;31.11;38.33;96574.59;5114219;27;20865;-83
2023/07/07 08:11:41;;;;;;;6.72;4.28;;;;;;;32.49;36.87;96575.25;5095771;27;20061;-83
2023/07/07 08:14:10;;;;;;;7.60;5.25;;;;;;;32.21;37.39;96571.47;5086681;28;20107;-83
2023/07/07 08:16:36;;;;;;;8.93;4.65;;;;;;;32.35;36.22;96575.13;5101996;27;20076;-82
2023/07/07 08:19:01;;;;;;;9.57;5.10;;;;;;;31.65;36.58;96584.50;5094495;28;20469;-82
2023/07/07 08:21:27;;;;;;;11.32;4.53;;;;;;;32.67;35.67;96579.13;5088283;27;20019;-83
2023/07/07 08:23:59;;;;;;;8.45;4.65;;;;;;;32.04;36.07;96585.53;5098553;28;20464;-82
2023/07/07 08:26:24;;;;;;;9.07;5.13;;;;;;;32.83;35.25;96585.94;5099316;28;20115;-83
2023/07/07 08:28:50;;;;;;;7.63;4.88;;;;;;;33.65;33.16;96592.97;5098359;27;20118;-83
2023/07/07 08:31:15;;;;;;;6.72;4.90;;;;;;;32.85;34.60;96589.22;5099446;28;20065;-82
2023/07/07 08:33:44;;;;;;;8.32;5.63;;;;;;;33.28;33.71;96583.72;5082516;27;20522;-84
2023/07/07 08:36:10;;;;;;;9.25;5.68;;;;;;;34.37;32.26;96587.81;5096646;28;20098;-82
2023/07/07 08:38:36;;;;;;;7.82;4.95;;;;;;;33.62;32.92;96591.63;5094697;27;20106;-82
2023/07/07 08:41:01;;;;;;;7.40;5.38;;;;;;;32.63;34.25;96596.03;5087324;28;20023;-83
2023/07/07 08:43:29;;;;;;;7.25;4.85;;;;;;;33.67;32.63;96591.56;5092445;27;20016;-83
2023/07/07 08:46:00;;;;;;;7.55;4.90;;;;;;;34.33;32.36;96595.00;5074018;28;20071;-83
2023/07/07 08:48:38;;;;;;;8.25;5.47;;;;;;;33.94;31.74;96593.53;5083457;27;20047;-83
2023/07/07 08:51:09;;;;;;;7.80;5.20;;;;;;;34.99;29.93;96592.84;5099960;28;20020;-83
2023/07/07 08:53:47;;;;;;;7.30;4.93;;;;;;;34.32;30.32;96603.50;5078026;28;20027;-83
2023/07/07 08:56:20;;;;;;;7.90;5.07;;;;;;;34.54;30.21;96591.88;5085079;27;20670;-83
2023/07/07 08:59:24;;;;;;;8.63;5.35;;;;;;;34.69;29.20;96592.38;5111917;27;20046;-82
2023/07/07 09:02:17;;;;;;;7.82;5.20;;;;;;;35.25;29.63;96589.56;5065644;27;20035;-83
2023/07/07 09:04:59;;;;;;;8.82;5.95;;;;;;;34.74;28.78;96594.19;5072490;28;20439;-83
2023/07/07 09:07:45;;;;;;;10.73;4.90;;;;;;;34.52;29.16;96591.41;5095351;27;22286;-83
2023/07/07 09:10:33;;;;;;;13.55;5.55;;;;;;;34.13;28.15;96587.22;5082310;28;20089;-83
2023/07/07 09:13:24;;;;;;;9.85;4.63;;;;;;;34.19;27.90;96600.47;5092732;27;20114;-82
2023/07/07 09:15:59;;;;;;;7.50;5.30;;;;;;;35.01;26.47;96593.34;5070556;27;20019;-82
2023/07/07 09:18:32;;;;;;;8.90;5.18;;;;;;;35.35;27.06;96592.84;5082355;28;20161;-83
2023/07/07 09:21:02;;;;;;;8.60;5.40;;;;;;;34.65;28.07;96591.38;5090377;28;20012;-83
2023/07/07 09:23:32;;;;;;;7.88;5.55;;;;;;;33.14;29.32;96599.19;5083943;27;20548;-83
2023/07/07 09:26:09;;;;;;;7.85;5.32;;;;;;;33.36;27.10;96599.38;5120654;27;20433;-83
2023/07/07 09:28:43;;;;;;;10.98;5.78;;;;;;;34.86;26.52;96594.47;5082609;28;20092;-83
2023/07/07 09:31:41;;;;;;;8.32;5.00;;;;;;;34.41;28.08;96591.59;5084512;28;20023;-83
2023/07/07 09:34:10;;;;;;;9.18;5.30;;;;;;;33.89;28.75;96607.25;5085790;27;20023;-83
2023/07/07 09:37:01;;;;;;;9.18;5.82;;;;;;;34.43;27.70;96605.72;5113096;27;20019;-83
2023/07/07 09:39:55;;;;;;;9.23;5.40;;;;;;;34.48;27.18;96602.09;5123630;27;20031;-83
2023/07/07 09:42:50;;;;;;;8.38;5.25;;;;;;;34.79;27.89;96591.34;5094766;27;20091;-83
2023/07/07 09:45:30;;;;;;;8.45;5.40;;;;;;;34.69;28.06;96591.59;5088485;28;20111;-83
2023/07/07 09:48:19;;;;;;;7.72;5.50;;;;;;;33.32;28.21;96588.25;5071960;28;20020;-83
2023/07/07 09:51:06;;;;;;;9.85;5.47;;;;;;;34.29;27.06;96583.06;5088311;28;20411;-83
2023/07/07 09:53:35;;;;;;;7.15;5.00;;;;;;;34.20;27.20;96593.88;5085180;28;20385;-83
2023/07/07 09:56:01;;;;;;;7.00;5.22;;;;;;;34.34;26.98;96585.72;5097653;28;20449;-83
2023/07/07 09:58:34;;;;;;;8.50;5.88;;;;;;;34.79;26.10;96583.16;5079105;28;20028;-83
2023/07/07 10:01:03;;;;;;;7.53;5.05;;;;;;;34.80;26.43;96579.31;5088374;28;20046;-83
2023/07/07 10:03:29;;;;;;;8.10;5.50;;;;;;;34.88;26.25;96578.59;5086631;28;20024;-83
2023/07/07 10:06:01;;;;;;;8.35;5.45;;;;;;;34.94;25.02;96574.63;5082787;28;20027;-83
2023/07/07 10:08:27;;;;;;;9.43;5.43;;;;;;;35.26;24.93;96578.31;5069545;28;20706;-83
2023/07/07 10:11:22;;;;;;;7.90;5.25;;;;;;;35.68;25.78;96578.94;5083285;28;20114;-83
2023/07/07 10:13:49;;;;;;;8.05;5.55;;;;;;;34.19;26.71;96581.34;5078475;28;20149;-83
2023/07/07 10:16:30;;;;;;;7.93;5.50;;;;;;;34.45;26.98;96589.84;5096049;28;20012;-83
2023/07/07 10:19:05;;;;;;;7.15;5.40;;;;;;;34.61;26.75;96567.69;5086672;28;20024;-83
2023/07/07 10:21:44;;;;;;;7.55;5.53;;;;;;;34.93;26.62;96575.75;5077731;28;20030;-83
2023/07/07 10:24:14;;;;;;;7.85;5.35;;;;;;;34.74;26.16;96577.78;5091203;28;20034;-83
2023/07/07 10:26:46;;;;;;;7.60;5.80;;;;;;;35.14;24.97;96580.75;5094872;28;20015;-83
2023/07/07 10:29:16;;;;;;;9.48;6.25;;;;;;;35.64;25.49;96569.75;5078966;28;20041;-81
2023/07/07 10:31:44;;;;;;;7.93;5.57;;;;;;;34.36;24.95;96583.47;5078041;28;20425;-83
2023/07/07 10:34:35;;;;;;;8.02;5.50;;;;;;;34.36;25.07;96578.00;5098355;28;20108;-83
2023/07/07 10:37:01;;;;;;;9.35;6.22;;;;;;;35.88;25.09;96566.66;5083841;28;20047;-83
2023/07/07 10:39:29;;;;;;;7.68;5.60;;;;;;;35.84;24.68;96566.47;5081112;28;20405;-83
2023/07/07 10:41:56;;;;;;;9.35;6.20;;;;;;;35.86;24.47;96566.97;5110009;28;20023;-84
2023/07/07 10:44:32;;;;;;;7.93;5.43;;;;;;;34.80;25.60;96565.66;5071022;28;20749;-85
2023/07/07 10:46:58;;;;;;;8.02;5.70;;;;;;;35.63;25.01;96570.88;5095681;28;20042;-86
2023/07/07 10:49:26;;;;;;;7.57;5.68;;;;;;;36.83;24.15;96565.41;5076093;28;20053;-83
2023/07/07 10:52:16;;;;;;;8.27;5.68;;;;;;;37.38;23.24;96568.34;5112758;28;20020;-83
2023/07/07 10:54:48;;;;;;;8.50;5.15;;;;;;;34.49;25.28;96565.47;5082734;28;20607;-83
2023/07/07 10:57:49;;;;;;;10.97;6.83;;;;;;;34.95;25.36;96565.31;5090187;28;20019;-83
2023/07/07 11:00:23;;;;;;;7.93;5.72;;;;;;;34.85;25.21;96567.47;5102342;28;20094;-83
2023/07/07 11:03:15;;;;;;;8.68;5.43;;;;;;;35.47;24.19;96564.13;5107718;28;20043;-83
2023/07/07 11:05:50;;;;;;;9.00;5.85;;;;;;;34.82;24.88;96562.63;5113839;27;20019;-83
2023/07/07 11:08:34;;;;;;;9.35;5.80;;;;;;;33.75;24.13;96571.75;5090009;28;20035;-82
2023/07/07 11:11:06;;;;;;;11.07;6.18;;;;;;;35.57;23.78;96561.16;5088737;27;20031;-83
2023/07/07 11:13:32;;;;;;;9.40;6.15;;;;;;;37.11;21.79;96555.78;5098375;28;20423;-83
2023/07/07 11:16:18;;;;;;;7.85;5.68;;;;;;;36.42;22.98;96555.63;5074642;28;20020;-83
2023/07/07 11:19:14;;;;;;;10.60;6.15;;;;;;;35.91;23.53;96559.75;5071987;28;20130;-82
2023/07/07 11:22:15;;;;;;;8.30;6.05;;;;;;;37.45;23.15;96545.94;5084584;28;20027;-83
2023/07/07 11:24:48;;;;;;;8.70;5.68;;;;;;;36.08;24.08;96548.91;5020260;27;20056;-82
2023/07/07 11:27:17;;;;;;;9.00;6.78;;;;;;;36.29;22.65;96554.63;5111261;27;20023;-83
2023/07/07 11:30:11;;;;;;;9.82;6.50;;;;;;;36.86;22.36;96551.06;5100558;27;20031;-83
2023/07/07 11:32:58;;;;;;;10.10;7.25;;;;;;;34.54;24.05;96559.13;5092757;27;20023;-84
2023/07/07 11:35:24;;;;;;;9.38;6.80;;;;;;;34.96;23.46;96556.00;5098837;28;20035;-83
2023/07/07 11:37:55;;;;;;;9.20;6.85;;;;;;;36.37;22.41;96545.63;5089406;28;20019;-83
2023/07/07 11:40:33;;;;;;;11.35;7.30;;;;;;;35.81;23.23;96553.41;5089296;27;20024;-83
2023/07/07 11:43:26;;;;;;;9.98;6.50;;;;;;;34.58;24.48;96536.38;5093697;27;20114;-83
2023/07/07 11:46:15;;;;;;;8.93;6.93;;;;;;;35.18;22.49;96538.84;5074937;27;20046;-83
2023/07/07 11:48:53;;;;;;;9.20;6.30;;;;;;;35.59;22.04;96528.84;5079626;28;20016;-84